createdAt,value
2018-07-24T00:00:49.870Z,17.51
2018-07-24T00:02:50.258Z,17.50
2018-07-24T00:04:49.945Z,17.48
2018-07-24T00:06:50.448Z,17.46
2018-07-24T00:08:50.705Z,17.42
2018-07-24T00:10:50.243Z,17.42
2018-07-24T00:12:50.673Z,17.37
2018-07-24T00:14:49.879Z,17.34
2018-07-24T00:16:50.456Z,17.30
2018-07-24T00:18:50.706Z,17.27
2018-07-24T00:20:49.878Z,17.26
2018-07-24T00:22:50.087Z,17.26
2018-07-24T00:24:50.562Z,17.23
2018-07-24T00:26:50.008Z,17.19
2018-07-24T00:28:50.181Z,17.16
2018-07-24T00:30:50.441Z,17.14
2018-07-24T00:32:50.668Z,17.11
2018-07-24T00:34:50.521Z,17.09
2018-07-24T00:36:50.152Z,17.09
2018-07-24T00:38:50.368Z,17.06
2018-07-24T00:40:50.527Z,17.04
2018-07-24T00:42:50.785Z,17.03
2018-07-24T00:44:50.144Z,17.03
2018-07-24T00:46:50.569Z,17.01
2018-07-24T00:48:50.875Z,16.96
2018-07-24T00:50:50.240Z,16.94
2018-07-24T00:52:50.421Z,16.92
2018-07-24T00:54:50.604Z,16.90
2018-07-24T00:56:50.167Z,16.89
2018-07-24T00:58:50.355Z,16.88
2018-07-24T01:00:50.560Z,16.85
2018-07-24T01:02:50.739Z,16.84
2018-07-24T01:04:50.437Z,16.82
2018-07-24T01:06:49.848Z,16.79
2018-07-24T01:08:50.017Z,16.73
2018-07-24T01:10:50.371Z,16.73
2018-07-24T01:12:50.562Z,16.65
2018-07-24T01:14:50.775Z,16.64
2018-07-24T01:16:50.165Z,16.61
2018-07-24T01:18:50.389Z,16.58
2018-07-24T01:20:50.598Z,16.55
2018-07-24T01:22:50.834Z,16.53
2018-07-24T01:24:50.172Z,16.51
2018-07-24T01:26:50.554Z,16.48
2018-07-24T01:28:50.846Z,16.47
2018-07-24T01:30:50.035Z,16.46
2018-07-24T01:32:50.323Z,16.44
2018-07-24T01:34:49.918Z,16.42
2018-07-24T01:36:50.378Z,16.40
2018-07-24T01:38:50.513Z,16.39
2018-07-24T01:40:50.740Z,16.39
2018-07-24T01:42:50.216Z,16.38
2018-07-24T01:44:50.390Z,16.36
2018-07-24T01:46:50.815Z,16.33
2018-07-24T01:48:50.271Z,16.33
2018-07-24T01:50:50.474Z,16.31
2018-07-24T01:52:50.633Z,16.30
2018-07-24T01:54:49.990Z,16.26
2018-07-24T01:56:50.435Z,16.24
2018-07-24T01:58:50.594Z,16.23
2018-07-24T02:00:50.808Z,16.23
2018-07-24T02:02:50.132Z,16.22
2018-07-24T02:04:50.868Z,16.23
2018-07-24T02:06:50.278Z,16.20
2018-07-24T02:08:50.541Z,16.18
2018-07-24T02:10:50.138Z,16.16
2018-07-24T02:12:50.325Z,16.15
2018-07-24T02:14:50.548Z,16.14
2018-07-24T02:16:50.158Z,16.14
2018-07-24T02:18:50.297Z,16.10
2018-07-24T02:20:50.479Z,16.08
2018-07-24T02:22:50.703Z,16.06
2018-07-24T02:24:49.920Z,16.06
2018-07-24T02:26:50.537Z,16.07
2018-07-24T02:28:50.785Z,16.07
2018-07-24T02:30:50.051Z,16.06
2018-07-24T02:32:50.324Z,16.04
2018-07-24T02:34:49.999Z,16.03
2018-07-24T02:36:50.491Z,15.99
2018-07-24T02:38:50.708Z,15.99
2018-07-24T02:40:49.899Z,15.99
2018-07-24T02:42:50.350Z,15.98
2018-07-24T02:44:50.685Z,15.94
2018-07-24T02:46:50.063Z,15.92
2018-07-24T02:48:50.213Z,15.88
2018-07-24T02:50:50.512Z,15.86
2018-07-24T02:52:50.719Z,15.83
2018-07-24T02:54:49.887Z,15.83
2018-07-24T02:56:50.457Z,15.82
2018-07-24T02:58:50.648Z,15.79
2018-07-24T03:00:49.890Z,15.76
2018-07-24T03:02:50.323Z,15.76
2018-07-24T03:04:50.045Z,15.75
2018-07-24T03:06:50.568Z,15.73
2018-07-24T03:08:50.826Z,15.73
2018-07-24T03:10:50.243Z,15.72
2018-07-24T03:12:50.389Z,15.74
2018-07-24T03:14:50.606Z,15.74
2018-07-24T03:16:50.093Z,15.73
2018-07-24T03:18:50.262Z,15.70
2018-07-24T03:20:50.483Z,15.69
2018-07-24T03:22:50.730Z,15.64
2018-07-24T03:24:50.026Z,15.63
2018-07-24T03:26:50.540Z,15.60
2018-07-24T03:28:50.775Z,15.59
2018-07-24T03:30:50.069Z,15.55
2018-07-24T03:32:50.377Z,15.53
2018-07-24T03:34:49.854Z,15.51
2018-07-24T03:36:50.371Z,15.51
2018-07-24T03:38:50.550Z,15.51
2018-07-24T03:40:50.843Z,15.52
2018-07-24T03:42:50.324Z,15.51
2018-07-24T03:44:50.760Z,15.48
2018-07-24T03:46:50.090Z,15.48
2018-07-24T03:48:50.457Z,15.48
2018-07-24T03:50:49.924Z,15.52
2018-07-24T03:52:50.215Z,15.54
2018-07-24T03:54:50.483Z,15.54
2018-07-24T03:56:50.201Z,15.54
2018-07-24T03:58:50.537Z,15.53
2018-07-24T04:00:50.822Z,15.53
2018-07-24T04:02:50.111Z,15.54
2018-07-24T04:04:50.006Z,15.56
2018-07-24T04:06:50.435Z,15.56
2018-07-24T04:08:50.743Z,15.58
2018-07-24T04:10:50.014Z,15.61
2018-07-24T04:12:50.193Z,15.65
2018-07-24T04:14:50.470Z,15.67
2018-07-24T04:16:50.202Z,15.73
2018-07-24T04:18:50.447Z,15.75
2018-07-24T04:20:50.634Z,15.78
2018-07-24T04:22:50.821Z,15.80
2018-07-24T04:24:50.410Z,15.86
2018-07-24T04:26:50.830Z,15.90
2018-07-24T04:28:49.948Z,15.95
2018-07-24T04:30:50.904Z,16.00
2018-07-24T04:32:50.311Z,16.05
2018-07-24T04:34:49.917Z,16.08
2018-07-24T04:36:50.257Z,16.12
2018-07-24T04:38:50.632Z,16.19
2018-07-24T04:40:50.795Z,16.22
2018-07-24T04:42:49.945Z,16.22
2018-07-24T04:44:50.327Z,16.34
2018-07-24T04:46:50.782Z,16.38
2018-07-24T04:48:50.145Z,16.48
2018-07-24T04:50:50.340Z,16.54
2018-07-24T04:52:50.580Z,16.62
2018-07-24T04:54:50.768Z,16.71
2018-07-24T04:56:50.198Z,16.76
2018-07-24T04:58:50.495Z,16.86
2018-07-24T05:00:49.921Z,16.90
2018-07-24T05:02:50.126Z,16.99
2018-07-24T05:04:50.638Z,17.04
2018-07-24T05:06:50.371Z,17.12
2018-07-24T05:08:50.705Z,17.20
2018-07-24T05:10:49.992Z,17.29
2018-07-24T05:12:50.414Z,17.39
2018-07-24T05:14:50.720Z,17.39
2018-07-24T05:16:50.762Z,17.51
2018-07-24T05:18:50.281Z,17.66
2018-07-24T05:20:50.480Z,17.68
2018-07-24T05:22:50.698Z,17.68
2018-07-24T05:24:50.191Z,17.83
2018-07-24T05:26:50.573Z,17.94
2018-07-24T05:28:50.818Z,18.04
2018-07-24T05:30:50.224Z,18.18
2018-07-24T05:32:50.430Z,18.27
2018-07-24T05:34:49.966Z,18.43
2018-07-24T05:36:50.828Z,18.49
2018-07-24T05:38:50.882Z,18.64
2018-07-24T05:40:50.199Z,18.71
2018-07-24T05:42:50.367Z,18.81
2018-07-24T05:44:50.661Z,18.96
2018-07-24T05:46:50.062Z,18.98
2018-07-24T05:48:50.590Z,19.09
2018-07-24T05:50:49.908Z,19.12
2018-07-24T05:52:50.132Z,19.25
2018-07-24T05:54:50.343Z,19.31
2018-07-24T05:56:50.762Z,19.35
2018-07-24T05:58:50.367Z,19.38
2018-07-24T06:00:50.760Z,19.44
2018-07-24T06:02:49.949Z,19.61
2018-07-24T06:04:50.551Z,19.71
2018-07-24T06:06:49.907Z,19.78
2018-07-24T06:08:50.057Z,19.84
2018-07-24T06:10:50.275Z,20.05
2018-07-24T06:12:50.617Z,20.12
2018-07-24T06:14:50.859Z,20.22
2018-07-24T06:16:51.666Z,20.34
2018-07-24T06:18:50.195Z,20.48
2018-07-24T06:20:50.399Z,20.54
2018-07-24T06:22:50.741Z,20.71
2018-07-24T06:24:50.087Z,20.94
2018-07-24T06:26:50.647Z,20.94
2018-07-24T06:28:50.915Z,21.28
2018-07-24T06:30:50.211Z,21.36
2018-07-24T06:32:50.366Z,21.41
2018-07-24T06:34:49.973Z,21.48
2018-07-24T06:36:50.500Z,21.61
2018-07-24T06:38:50.644Z,21.70
2018-07-24T06:40:49.906Z,21.86
2018-07-24T06:42:50.283Z,21.91
2018-07-24T06:44:50.504Z,21.96
2018-07-24T06:46:50.041Z,22.06
2018-07-24T06:48:50.341Z,22.01
2018-07-24T06:50:50.570Z,21.98
2018-07-24T06:52:50.832Z,22.13
2018-07-24T06:54:50.195Z,22.2
2018-07-24T06:56:50.735Z,22.2
2018-07-24T06:58:50.100Z,22.3
2018-07-24T07:00:50.503Z,22.4
2018-07-24T07:02:50.748Z,22.4
2018-07-24T07:04:50.522Z,22.5
2018-07-24T07:06:49.974Z,22.5
2018-07-24T07:08:50.353Z,22.6
2018-07-24T07:10:50.505Z,22.6
2018-07-24T07:12:50.695Z,22.59
2018-07-24T07:14:49.963Z,22.65
2018-07-24T07:16:50.512Z,22.61
2018-07-24T07:18:49.867Z,22.64
2018-07-24T07:20:50.246Z,22.76
2018-07-24T07:22:50.689Z,22.84
2018-07-24T07:24:50.836Z,22.9
2018-07-24T07:26:50.511Z,23.0
2018-07-24T07:28:50.801Z,23.0
2018-07-24T07:30:49.910Z,23.1
2018-07-24T07:32:50.104Z,23.1
2018-07-24T07:34:50.780Z,23.2
2018-07-24T07:36:50.228Z,23.2
2018-07-24T07:38:50.359Z,23.4
2018-07-24T07:40:50.628Z,23.4
2018-07-24T07:42:49.879Z,23.4
2018-07-24T07:44:50.031Z,23.4
2018-07-24T07:46:50.454Z,23.5
2018-07-24T07:48:50.765Z,23.5
2018-07-24T07:50:49.891Z,23.5
2018-07-24T07:52:50.054Z,23.6
2018-07-24T07:54:50.362Z,23.6
2018-07-24T07:56:50.706Z,23.7
2018-07-24T07:58:50.492Z,23.8
2018-07-24T08:00:50.774Z,23.9
2018-07-24T08:02:50.293Z,23.9
2018-07-24T08:04:50.795Z,24.0
2018-07-24T08:06:50.375Z,24.1
2018-07-24T08:08:50.594Z,24.2
2018-07-24T08:10:50.853Z,24.2
2018-07-24T08:12:50.074Z,24.2
2018-07-24T08:14:50.271Z,24.2
2018-07-24T08:16:49.941Z,24.3
2018-07-24T08:18:50.164Z,24.3
2018-07-24T08:20:50.360Z,24.4
2018-07-24T08:22:50.594Z,24.5
2018-07-24T08:24:49.859Z,24.6
2018-07-24T08:26:50.318Z,24.6
2018-07-24T08:28:50.687Z,24.7
2018-07-24T08:30:49.917Z,24.7
2018-07-24T08:32:50.086Z,24.8
2018-07-24T08:34:50.618Z,24.8
2018-07-24T08:36:50.086Z,25.0
2018-07-24T08:38:50.227Z,25.0
2018-07-24T08:40:50.508Z,25.0
2018-07-24T08:42:50.759Z,25.0
2018-07-24T08:44:50.475Z,25.1
2018-07-24T08:46:50.153Z,25.1
2018-07-24T08:48:50.500Z,25.1
2018-07-24T08:50:50.741Z,25.2
2018-07-24T08:52:51.260Z,25.4
2018-07-24T08:54:53.601Z,25.4
2018-07-24T08:56:50.648Z,25.5
2018-07-24T08:58:49.953Z,25.5
2018-07-24T09:00:50.224Z,25.6
2018-07-24T09:02:50.378Z,25.7
2018-07-24T09:04:49.957Z,25.7
2018-07-24T09:06:50.472Z,25.8
2018-07-24T09:08:50.653Z,25.8
2018-07-24T09:10:50.873Z,25.8
2018-07-24T09:12:50.200Z,25.9
2018-07-24T09:14:50.331Z,25.9
2018-07-24T09:16:50.821Z,26.0
2018-07-24T09:18:50.098Z,26.0
2018-07-24T09:20:50.615Z,26.0
2018-07-24T09:22:49.886Z,26.1
2018-07-24T09:24:50.216Z,26.1
2018-07-24T09:26:50.732Z,26.2
2018-07-24T09:28:49.955Z,26.3
2018-07-24T09:30:50.193Z,26.4
2018-07-24T09:32:50.538Z,26.4
2018-07-24T09:34:50.088Z,26.4
2018-07-24T09:36:50.484Z,26.5
2018-07-24T09:38:49.937Z,26.6
2018-07-24T09:40:50.356Z,26.6
2018-07-24T09:42:50.555Z,26.7
2018-07-24T09:44:49.886Z,26.7
2018-07-24T09:46:50.281Z,26.8
2018-07-24T09:48:50.458Z,26.8
2018-07-24T09:50:49.924Z,26.9
2018-07-24T09:52:50.217Z,26.8
2018-07-24T09:54:50.369Z,26.8
2018-07-24T09:56:50.815Z,26.9
2018-07-24T09:58:50.136Z,27.0
2018-07-24T10:00:50.293Z,27.0
2018-07-24T10:02:50.593Z,27.2
2018-07-24T10:04:50.452Z,27.2
2018-07-24T10:06:49.997Z,27.2
2018-07-24T10:08:50.264Z,27.3
2018-07-24T10:10:50.584Z,27.4
2018-07-24T10:12:50.854Z,27.6
2018-07-24T10:14:50.453Z,27.7
2018-07-24T10:16:50.507Z,27.7
2018-07-24T10:18:50.289Z,27.8
2018-07-24T10:20:50.593Z,28.1
2018-07-24T10:22:50.669Z,28.2
2018-07-24T10:24:49.934Z,28.2
2018-07-24T10:26:50.567Z,28.3
2018-07-24T10:28:50.697Z,28.4
2018-07-24T10:30:49.964Z,28.4
2018-07-24T10:32:50.183Z,28.4
2018-07-24T10:34:50.778Z,28.4
2018-07-24T10:36:50.214Z,28.4
2018-07-24T10:38:50.416Z,28.5
2018-07-24T10:40:50.603Z,28.4
2018-07-24T10:42:50.784Z,28.4
2018-07-24T10:44:50.054Z,28.4
2018-07-24T10:46:50.541Z,28.4
2018-07-24T10:48:50.700Z,28.4
2018-07-24T10:50:49.967Z,28.4
2018-07-24T10:52:50.385Z,28.4
2018-07-24T10:54:50.631Z,28.4
2018-07-24T10:56:50.171Z,28.4
2018-07-24T10:58:50.329Z,28.4
2018-07-24T11:00:50.621Z,28.4
2018-07-24T11:02:49.900Z,28.4
2018-07-24T11:04:50.552Z,28.4
2018-07-24T11:06:49.952Z,28.5
2018-07-24T11:08:50.337Z,28.6
2018-07-24T11:10:50.826Z,28.6
2018-07-24T11:12:50.007Z,28.6
2018-07-24T11:14:50.258Z,28.8
2018-07-24T11:16:50.688Z,28.8
2018-07-24T11:18:50.836Z,28.8
2018-07-24T11:20:50.221Z,28.9
2018-07-24T11:22:52.138Z,29.0
2018-07-24T11:24:50.573Z,29.0
2018-07-24T11:26:50.088Z,29.1
2018-07-24T11:28:50.394Z,29.2
2018-07-24T11:30:50.789Z,29.2
2018-07-24T11:32:50.238Z,29.2
2018-07-24T11:34:49.944Z,29.2
2018-07-24T11:36:50.389Z,29.1
2018-07-24T11:38:50.522Z,29.1
2018-07-24T11:40:50.763Z,29.1
2018-07-24T11:42:50.113Z,29.2
2018-07-24T11:44:50.436Z,29.2
2018-07-24T11:46:49.920Z,29.2
2018-07-24T11:48:50.156Z,29.2
2018-07-24T11:50:50.301Z,29.2
2018-07-24T11:52:50.558Z,29.2
2018-07-24T11:54:50.792Z,29.2
2018-07-24T11:56:50.170Z,29.2
2018-07-24T11:58:50.576Z,29.2
2018-07-24T12:00:49.985Z,29.2
2018-07-24T12:02:50.118Z,29.4
2018-07-24T12:04:51.231Z,29.3
2018-07-24T12:06:49.917Z,29.3
2018-07-24T12:08:50.102Z,29.3
2018-07-24T12:10:50.274Z,29.3
2018-07-24T12:12:50.600Z,29.4
2018-07-24T12:14:50.248Z,29.4
2018-07-24T12:16:50.654Z,29.4
2018-07-24T12:18:50.843Z,29.5
2018-07-24T12:20:50.248Z,29.6
2018-07-24T12:22:50.398Z,29.6
2018-07-24T12:24:50.564Z,29.6
2018-07-24T12:26:50.131Z,29.8
2018-07-24T12:28:50.429Z,29.8
2018-07-24T12:30:50.567Z,29.9
2018-07-24T12:32:49.856Z,30.0
2018-07-24T12:34:50.497Z,30.0
2018-07-24T12:36:50.007Z,30.0
2018-07-24T12:38:50.203Z,30.0
2018-07-24T12:40:50.426Z,30.0
2018-07-24T12:42:50.665Z,30.1
2018-07-24T12:44:50.878Z,30.1
2018-07-24T12:46:50.410Z,30.1
2018-07-24T12:48:50.655Z,30.2
2018-07-24T12:50:50.795Z,30.2
2018-07-24T12:52:50.017Z,30.3
2018-07-24T12:54:50.322Z,30.3
2018-07-24T12:56:49.870Z,30.3
2018-07-24T12:58:50.039Z,30.3
2018-07-24T13:00:50.338Z,30.4
2018-07-24T13:02:50.695Z,30.4
2018-07-24T13:04:50.418Z,30.4
2018-07-24T13:06:50.826Z,30.4
2018-07-24T13:08:50.114Z,30.4
2018-07-24T13:10:50.733Z,30.4
2018-07-24T13:12:49.960Z,30.4
2018-07-24T13:14:50.292Z,30.4
2018-07-24T13:16:50.701Z,30.4
2018-07-24T13:18:49.896Z,30.5
2018-07-24T13:20:50.221Z,30.6
2018-07-24T13:22:50.389Z,30.6
2018-07-24T13:24:50.488Z,30.6
2018-07-24T13:26:49.976Z,30.7
2018-07-24T13:28:50.207Z,30.7
2018-07-24T13:30:50.442Z,30.7
2018-07-24T13:32:51.043Z,30.7
2018-07-24T13:34:50.550Z,30.8
2018-07-24T13:36:50.035Z,30.8
2018-07-24T13:38:50.255Z,30.8
2018-07-24T13:40:50.479Z,30.8
2018-07-24T13:42:50.755Z,30.8
2018-07-24T13:44:49.905Z,30.8
2018-07-24T13:46:50.290Z,30.8
2018-07-24T13:48:50.543Z,30.9
2018-07-24T13:50:50.022Z,30.9
2018-07-24T13:52:50.148Z,30.9
2018-07-24T13:54:50.425Z,31.0
2018-07-24T13:56:50.007Z,31.0
2018-07-24T13:58:50.418Z,31.1
2018-07-24T14:00:50.688Z,31.2
2018-07-24T14:02:49.929Z,31.2
2018-07-24T14:04:50.563Z,31.2
2018-07-24T14:06:50.010Z,31.2
2018-07-24T14:08:50.095Z,31.3
2018-07-24T14:10:50.356Z,31.3
2018-07-24T14:12:50.593Z,31.3
2018-07-24T14:14:50.826Z,31.3
2018-07-24T14:16:50.323Z,31.3
2018-07-24T14:18:50.611Z,31.3
2018-07-24T14:20:50.798Z,31.4
2018-07-24T14:22:50.477Z,31.4
2018-07-24T14:24:50.713Z,31.4
2018-07-24T14:26:50.460Z,31.5
2018-07-24T14:28:50.762Z,31.5
2018-07-24T14:30:49.861Z,31.5
2018-07-24T14:32:50.026Z,31.5
2018-07-24T14:34:50.557Z,31.5
2018-07-24T14:36:50.367Z,31.4
2018-07-24T14:38:50.757Z,31.4
2018-07-24T14:40:50.254Z,31.4
2018-07-24T14:42:50.444Z,31.4
2018-07-24T14:44:50.627Z,31.4
2018-07-24T14:46:50.065Z,31.4
2018-07-24T14:48:50.341Z,31.4
2018-07-24T14:50:50.643Z,31.4
2018-07-24T14:52:50.728Z,31.4
2018-07-24T14:54:50.528Z,31.4
2018-07-24T14:56:49.948Z,31.4
2018-07-24T14:58:51.018Z,31.4
2018-07-24T15:00:50.237Z,31.4
2018-07-24T15:02:50.441Z,31.4
2018-07-24T15:04:50.855Z,31.4
2018-07-24T15:06:50.590Z,31.4
2018-07-24T15:08:49.903Z,31.5
2018-07-24T15:10:50.027Z,31.5
2018-07-24T15:12:50.308Z,31.6
2018-07-24T15:14:50.459Z,31.6
2018-07-24T15:16:49.944Z,31.7
2018-07-24T15:18:50.167Z,31.7
2018-07-24T15:20:50.539Z,31.7
2018-07-24T15:22:50.783Z,31.7
2018-07-24T15:24:49.997Z,31.7
2018-07-24T15:26:50.722Z,31.8
2018-07-24T15:28:51.850Z,31.8
2018-07-24T15:30:50.149Z,31.8
2018-07-24T15:32:50.402Z,31.7
2018-07-24T15:34:51.220Z,31.7
2018-07-24T15:36:49.882Z,31.8
2018-07-24T15:38:50.129Z,31.9
2018-07-24T15:40:50.357Z,31.8
2018-07-24T15:42:50.546Z,31.8
2018-07-24T15:44:50.796Z,31.8
2018-07-24T15:46:50.908Z,31.8
2018-07-24T15:48:50.325Z,31.8
2018-07-24T15:50:50.638Z,31.8
2018-07-24T15:52:49.979Z,31.8
2018-07-24T15:54:50.111Z,31.8
2018-07-24T15:56:50.562Z,31.7
2018-07-24T15:58:50.825Z,31.8
2018-07-24T16:00:50.013Z,31.7
2018-07-24T16:02:50.164Z,31.7
2018-07-24T16:04:50.803Z,31.7
2018-07-24T16:06:50.223Z,31.7
2018-07-24T16:08:50.319Z,31.8
2018-07-24T16:10:50.641Z,31.8
2018-07-24T16:12:49.955Z,31.8
2018-07-24T16:14:50.110Z,31.9
2018-07-24T16:16:50.530Z,31.9
2018-07-24T16:18:50.810Z,32.0
2018-07-24T16:20:49.966Z,32.0
2018-07-24T16:22:50.110Z,32.0
2018-07-24T16:24:50.436Z,32.0
2018-07-24T16:26:50.845Z,32.0
2018-07-24T16:28:49.971Z,32.1
2018-07-24T16:30:50.258Z,32.1
2018-07-24T16:32:50.490Z,32.1
2018-07-24T16:34:50.306Z,32.2
2018-07-24T16:36:50.732Z,32.2
2018-07-24T16:38:50.075Z,32.3
2018-07-24T16:40:50.312Z,32.3
2018-07-24T16:42:50.628Z,32.3
2018-07-24T16:44:49.897Z,32.4
2018-07-24T16:46:50.307Z,32.4
2018-07-24T16:48:50.653Z,32.4
2018-07-24T16:50:50.855Z,32.4
2018-07-24T16:52:50.079Z,32.5
2018-07-24T16:54:50.301Z,32.5
2018-07-24T16:56:50.674Z,32.5
2018-07-24T16:58:50.785Z,32.6
2018-07-24T17:00:49.962Z,32.6
2018-07-24T17:02:50.731Z,32.6
2018-07-24T17:04:50.388Z,32.6
2018-07-24T17:06:49.934Z,32.7
2018-07-24T17:08:50.177Z,32.7
2018-07-24T17:10:50.552Z,32.7
2018-07-24T17:12:49.850Z,32.6
2018-07-24T17:14:50.287Z,32.6
2018-07-24T17:16:50.689Z,32.6
2018-07-24T17:18:50.819Z,32.38
2018-07-24T17:20:50.178Z,32.01
2018-07-24T17:22:50.452Z,31.81
2018-07-24T17:24:50.577Z,31.72
2018-07-24T17:26:50.097Z,31.53
2018-07-24T17:28:50.380Z,31.26
2018-07-24T17:30:50.545Z,31.15
2018-07-24T17:32:50.742Z,31.08
2018-07-24T17:34:50.423Z,31.00
2018-07-24T17:36:49.975Z,30.84
2018-07-24T17:38:50.116Z,30.79
2018-07-24T17:40:50.830Z,30.67
2018-07-24T17:42:50.359Z,30.61
2018-07-24T17:44:50.509Z,30.50
2018-07-24T17:46:50.074Z,30.50
2018-07-24T17:48:50.770Z,30.30
2018-07-24T17:50:50.023Z,30.29
2018-07-24T17:52:50.332Z,30.24
2018-07-24T17:54:50.591Z,30.14
2018-07-24T17:56:50.317Z,30.08
2018-07-24T17:58:50.543Z,30.04
2018-07-24T18:00:50.818Z,29.99
2018-07-24T18:02:50.148Z,29.93
2018-07-24T18:04:50.756Z,29.85
2018-07-24T18:06:50.201Z,29.78
2018-07-24T18:08:50.394Z,29.73
2018-07-24T18:10:50.739Z,29.69
2018-07-24T18:12:49.952Z,29.65
2018-07-24T18:14:50.484Z,29.54
2018-07-24T18:16:50.031Z,29.46
2018-07-24T18:18:50.344Z,29.44
2018-07-24T18:20:50.642Z,29.33
2018-07-24T18:22:50.167Z,29.28
2018-07-24T18:24:50.339Z,29.17
2018-07-24T18:26:50.785Z,29.07
2018-07-24T18:28:50.101Z,28.97
2018-07-24T18:30:50.219Z,28.89
2018-07-24T18:32:50.387Z,28.81
2018-07-24T18:34:50.173Z,28.65
2018-07-24T18:36:50.619Z,28.48
2018-07-24T18:38:50.147Z,28.37
2018-07-24T18:40:50.495Z,28.32
2018-07-24T18:42:50.835Z,28.18
2018-07-24T18:44:50.059Z,28.07
2018-07-24T18:46:50.949Z,27.88
2018-07-24T18:48:50.179Z,27.74
2018-07-24T18:50:50.339Z,27.68
2018-07-24T18:52:50.615Z,27.51
2018-07-24T18:54:50.808Z,27.36
2018-07-24T18:56:50.189Z,27.15
2018-07-24T18:58:50.865Z,27.02
2018-07-24T19:00:50.234Z,26.92
2018-07-24T19:02:50.537Z,26.78
2018-07-24T19:04:50.316Z,26.66
2018-07-24T19:06:50.663Z,26.53
2018-07-24T19:08:50.793Z,26.44
2018-07-24T19:10:50.004Z,26.35
2018-07-24T19:12:50.294Z,26.19
2018-07-24T19:14:50.613Z,26.02
2018-07-24T19:16:50.287Z,25.94
2018-07-24T19:18:50.535Z,25.82
2018-07-24T19:20:50.862Z,25.75
2018-07-24T19:22:50.035Z,25.60
2018-07-24T19:24:50.236Z,25.47
2018-07-24T19:26:50.792Z,25.42
2018-07-24T19:28:50.062Z,25.32
2018-07-24T19:30:50.463Z,25.20
2018-07-24T19:32:50.709Z,25.20
2018-07-24T19:34:50.601Z,25.03
2018-07-24T19:36:50.153Z,25.00
2018-07-24T19:38:50.317Z,24.87
2018-07-24T19:40:50.509Z,24.79
2018-07-24T19:42:49.917Z,24.72
2018-07-24T19:44:49.983Z,24.63
2018-07-24T19:46:50.470Z,24.59
2018-07-24T19:48:50.736Z,24.53
2018-07-24T19:50:49.859Z,24.37
2018-07-24T19:52:50.090Z,24.27
2018-07-24T19:54:50.553Z,24.17
2018-07-24T19:56:49.947Z,24.10
2018-07-24T19:58:50.116Z,24.02
2018-07-24T20:00:50.376Z,23.97
2018-07-24T20:02:50.561Z,23.92
2018-07-24T20:04:50.423Z,23.79
2018-07-24T20:06:49.987Z,23.70
2018-07-24T20:08:50.127Z,23.63
2018-07-24T20:10:50.394Z,23.58
2018-07-24T20:12:50.812Z,23.46
2018-07-24T20:14:50.174Z,23.40
2018-07-24T20:16:50.620Z,23.38
2018-07-24T20:18:50.772Z,23.34
2018-07-24T20:20:50.077Z,23.34
2018-07-24T20:22:50.997Z,23.16
2018-07-24T20:24:50.394Z,23.08
2018-07-24T20:26:50.174Z,23.01
2018-07-24T20:28:51.139Z,22.98
2018-07-24T20:30:50.678Z,22.93
2018-07-24T20:32:49.942Z,22.90
2018-07-24T20:34:50.475Z,22.78
2018-07-24T20:36:50.787Z,22.71
2018-07-24T20:38:49.994Z,22.69
2018-07-24T20:40:50.370Z,22.65
2018-07-24T20:42:50.619Z,22.57
2018-07-24T20:44:49.952Z,22.52
2018-07-24T20:46:50.604Z,22.46
2018-07-24T20:48:49.862Z,22.44
2018-07-24T20:50:49.996Z,22.41
2018-07-24T20:52:50.268Z,22.39
2018-07-24T20:54:50.433Z,22.22
2018-07-24T20:56:49.873Z,22.14
2018-07-24T20:58:50.166Z,22.01
2018-07-24T21:00:50.357Z,21.96
2018-07-24T21:02:50.423Z,21.87
2018-07-24T21:04:49.968Z,21.84
2018-07-24T21:06:50.413Z,21.73
2018-07-24T21:08:50.592Z,21.70
2018-07-24T21:10:50.862Z,21.70
2018-07-24T21:12:50.136Z,21.61
2018-07-24T21:14:50.358Z,21.55
2018-07-24T21:16:50.828Z,21.52
2018-07-24T21:18:49.986Z,21.50
2018-07-24T21:20:50.634Z,21.48
2018-07-24T21:22:49.940Z,21.47
2018-07-24T21:24:50.063Z,21.41
2018-07-24T21:26:50.598Z,21.37
2018-07-24T21:28:50.724Z,21.28
2018-07-24T21:30:49.926Z,21.20
2018-07-24T21:32:50.233Z,21.13
2018-07-24T21:34:49.961Z,21.05
2018-07-24T21:36:50.333Z,21.03
2018-07-24T21:38:50.552Z,20.96
2018-07-24T21:40:50.796Z,20.92
2018-07-24T21:42:50.409Z,20.88
2018-07-24T21:44:49.898Z,20.85
2018-07-24T21:46:50.365Z,20.83
2018-07-24T21:48:50.861Z,20.82
2018-07-24T21:50:50.028Z,20.78
2018-07-24T21:52:50.301Z,20.72
2018-07-24T21:54:50.864Z,20.67
2018-07-24T21:56:50.355Z,20.62
2018-07-24T21:58:50.642Z,20.58
2018-07-24T22:00:50.271Z,20.57
2018-07-24T22:02:50.583Z,20.56
2018-07-24T22:04:50.479Z,20.53
2018-07-24T22:06:50.013Z,20.52
2018-07-24T22:08:51.245Z,20.54
2018-07-24T22:10:50.601Z,20.51
2018-07-24T22:12:50.828Z,20.47
2018-07-24T22:14:49.958Z,20.43
2018-07-24T22:16:50.421Z,20.41
2018-07-24T22:18:50.725Z,20.40
2018-07-24T22:20:50.002Z,20.39
2018-07-24T22:22:50.360Z,20.37
2018-07-24T22:24:50.631Z,20.37
2018-07-24T22:26:50.283Z,20.33
2018-07-24T22:28:50.061Z,20.31
2018-07-24T22:30:50.219Z,20.26
2018-07-24T22:32:50.549Z,20.23
2018-07-24T22:34:50.219Z,20.18
2018-07-24T22:36:50.618Z,20.13
2018-07-24T22:38:50.812Z,20.10
2018-07-24T22:40:50.230Z,20.08
2018-07-24T22:42:50.404Z,20.05
2018-07-24T22:44:50.666Z,20.02
2018-07-24T22:46:50.245Z,19.97
2018-07-24T22:48:50.471Z,19.96
2018-07-24T22:50:50.544Z,20.00
2018-07-24T22:52:49.931Z,20.06
2018-07-24T22:54:50.062Z,20.06
2018-07-24T22:56:51.100Z,20.03
2018-07-24T22:58:50.483Z,19.97
2018-07-24T23:00:50.723Z,19.92
2018-07-24T23:02:49.917Z,19.88
2018-07-24T23:04:50.403Z,19.83
2018-07-24T23:06:50.804Z,19.78
2018-07-24T23:08:49.946Z,19.76
2018-07-24T23:10:50.144Z,19.73
2018-07-24T23:12:50.369Z,19.72
2018-07-24T23:14:50.789Z,19.68
2018-07-24T23:16:50.339Z,19.68
2018-07-24T23:18:50.676Z,19.65
2018-07-24T23:20:50.837Z,19.64
2018-07-24T23:22:50.032Z,19.62
2018-07-24T23:24:50.208Z,19.61
2018-07-24T23:26:50.561Z,19.57
2018-07-24T23:28:49.905Z,19.53
2018-07-24T23:30:50.143Z,19.51
2018-07-24T23:32:50.276Z,19.48
2018-07-24T23:34:49.881Z,19.44
2018-07-24T23:36:50.369Z,19.37
2018-07-24T23:38:50.665Z,19.32
2018-07-24T23:40:50.830Z,19.29
2018-07-24T23:42:50.169Z,19.29
2018-07-24T23:44:50.457Z,19.32
2018-07-24T23:46:51.315Z,19.32
2018-07-24T23:48:50.582Z,19.32
2018-07-24T23:50:50.767Z,19.32
2018-07-24T23:52:49.968Z,19.31
2018-07-24T23:54:50.248Z,19.34
2018-07-24T23:56:50.547Z,19.34
2018-07-24T23:58:50.720Z,19.33
